sensor_id;sensor_type;location;lat;lon;timestamp;pressure;altitude;pressure_sealevel;temperature;humidity
75867;BME280;64513;56.258;43.980;2022-12-29T00:01:53;99332.89;;;3.42;57.80
75867;BME280;64513;56.258;43.980;2022-12-29T00:04:17;99322.44;;;3.42;57.77
75867;BME280;64513;56.258;43.980;2022-12-29T00:06:42;99336.06;;;3.44;57.78
75867;BME280;64513;56.258;43.980;2022-12-29T00:09:06;99337.64;;;3.45;57.74
75867;BME280;64513;56.258;43.980;2022-12-29T00:11:30;99334.00;;;3.46;57.74
75867;BME280;64513;56.258;43.980;2022-12-29T00:13:54;99337.64;;;3.45;57.75
75867;BME280;64513;56.258;43.980;2022-12-29T00:16:41;99331.39;;;3.46;57.76
75867;BME280;64513;56.258;43.980;2022-12-29T00:19:05;99323.55;;;3.46;57.75
75867;BME280;64513;56.258;43.980;2022-12-29T00:21:31;99330.59;;;3.45;57.78
75867;BME280;64513;56.258;43.980;2022-12-29T00:27:20;99319.08;;;3.46;57.74
75867;BME280;64513;56.258;43.980;2022-12-29T00:30:24;99316.73;;;3.45;57.73
75867;BME280;64513;56.258;43.980;2022-12-29T00:33:29;99324.81;;;3.43;57.79
75867;BME280;64513;56.258;43.980;2022-12-29T00:36:34;99319.03;;;3.41;57.78
75867;BME280;64513;56.258;43.980;2022-12-29T00:39:19;99322.13;;;3.38;57.81
75867;BME280;64513;56.258;43.980;2022-12-29T00:45:07;99325.77;;;3.37;57.89
75867;BME280;64513;56.258;43.980;2022-12-29T00:47:32;99325.77;;;3.37;57.89
75867;BME280;64513;56.258;43.980;2022-12-29T00:49:56;99314.52;;;3.37;57.96
75867;BME280;64513;56.258;43.980;2022-12-29T00:52:20;99323.94;;;3.38;57.97
75867;BME280;64513;56.258;43.980;2022-12-29T00:54:44;99319.27;;;3.40;58.02
75867;BME280;64513;56.258;43.980;2022-12-29T00:57:09;99320.86;;;3.41;57.96
75867;BME280;64513;56.258;43.980;2022-12-29T00:59:36;99314.36;;;3.43;57.96
75867;BME280;64513;56.258;43.980;2022-12-29T01:02:00;99320.94;;;3.46;57.89
75867;BME280;64513;56.258;43.980;2022-12-29T01:04:25;99326.69;;;3.48;57.88
75867;BME280;64513;56.258;43.980;2022-12-29T01:06:50;99329.86;;;3.50;57.84
75867;BME280;64513;56.258;43.980;2022-12-29T01:09:14;99329.86;;;3.50;57.84
75867;BME280;64513;56.258;43.980;2022-12-29T01:11:59;99327.00;;;3.51;57.80
75867;BME280;64513;56.258;43.980;2022-12-29T01:14:24;99320.98;;;3.51;57.78
75867;BME280;64513;56.258;43.980;2022-12-29T01:16:49;99330.41;;;3.52;57.79
75867;BME280;64513;56.258;43.980;2022-12-29T01:19:15;99328.83;;;3.51;57.77
75867;BME280;64513;56.258;43.980;2022-12-29T01:21:39;99318.92;;;3.53;57.81
75867;BME280;64513;56.258;43.980;2022-12-29T01:24:04;99328.35;;;3.54;57.77
75867;BME280;64513;56.258;43.980;2022-12-29T01:26:28;99325.73;;;3.54;57.75
75867;BME280;64513;56.258;43.980;2022-12-29T01:28:52;99321.30;;;3.55;57.79
75867;BME280;64513;56.258;43.980;2022-12-29T01:31:16;99322.09;;;3.55;57.74
75867;BME280;64513;56.258;43.980;2022-12-29T01:33:41;99328.11;;;3.56;57.73
75867;BME280;64513;56.258;43.980;2022-12-29T01:36:08;99330.48;;;3.57;57.75
75867;BME280;64513;56.258;43.980;2022-12-29T01:38:34;99329.70;;;3.57;57.77
75867;BME280;64513;56.258;43.980;2022-12-29T01:40:59;99335.72;;;3.57;57.75
75867;BME280;64513;56.258;43.980;2022-12-29T01:52:02;99334.13;;;3.56;57.73
75867;BME280;64513;56.258;43.980;2022-12-29T01:54:30;99341.42;;;3.54;57.71
75867;BME280;64513;56.258;43.980;2022-12-29T01:56:55;99345.06;;;3.53;57.79
75867;BME280;64513;56.258;43.980;2022-12-29T01:59:22;99345.86;;;3.53;57.81
75867;BME280;64513;56.258;43.980;2022-12-29T02:01:47;99340.63;;;3.53;57.82
75867;BME280;64513;56.258;43.980;2022-12-29T02:04:13;99338.57;;;3.56;57.84
75867;BME280;64513;56.258;43.980;2022-12-29T02:06:58;99333.34;;;3.56;57.80
75867;BME280;64513;56.258;43.980;2022-12-29T02:09:22;99339.36;;;3.56;57.82
75867;BME280;64513;56.258;43.980;2022-12-29T02:11:47;99338.34;;;3.57;57.79
75867;BME280;64513;56.258;43.980;2022-12-29T02:14:12;99337.30;;;3.58;57.80
75867;BME280;64513;56.258;43.980;2022-12-29T02:17:01;99343.33;;;3.59;57.80
75867;BME280;64513;56.258;43.980;2022-12-29T02:23:08;99344.12;;;3.59;57.79
75867;BME280;64513;56.258;43.980;2022-12-29T02:28:58;99346.17;;;3.57;57.80
75867;BME280;64513;56.258;43.980;2022-12-29T02:54:05;99338.80;;;3.54;57.94
75867;BME280;64513;56.258;43.980;2022-12-29T02:56:49;99339.36;;;3.56;57.92
75867;BME280;64513;56.258;43.980;2022-12-29T02:59:14;99340.16;;;3.57;57.99
75867;BME280;64513;56.258;43.980;2022-12-29T03:20:08;99357.19;;;3.59;58.05
75867;BME280;64513;56.258;43.980;2022-12-29T03:22:36;99362.42;;;3.59;58.05
75867;BME280;64513;56.258;43.980;2022-12-29T03:28:08;99359.30;;;3.62;58.11
75867;BME280;64513;56.258;43.980;2022-12-29T03:30:34;99367.70;;;3.64;58.11
75867;BME280;64513;56.258;43.980;2022-12-29T03:35:47;99371.66;;;3.67;58.08
75867;BME280;64513;56.258;43.980;2022-12-29T03:41:20;99366.52;;;3.72;58.07
75867;BME280;64513;56.258;43.980;2022-12-29T03:43:44;99363.89;;;3.72;57.98
75867;BME280;64513;56.258;43.980;2022-12-29T03:46:08;99371.50;;;3.73;58.03
75867;BME280;64513;56.258;43.980;2022-12-29T03:48:32;99369.44;;;3.75;57.99
75867;BME280;64513;56.258;43.980;2022-12-29T03:50:56;99359.77;;;3.76;58.01
75867;BME280;64513;56.258;43.980;2022-12-29T03:53:20;99365.53;;;3.78;58.01
75867;BME280;64513;56.258;43.980;2022-12-29T03:55:44;99366.88;;;3.80;58.01
75867;BME280;64513;56.258;43.980;2022-12-29T03:58:08;99372.90;;;3.81;57.93
75867;BME280;64513;56.258;43.980;2022-12-29T04:00:33;99371.62;;;3.83;57.93
75867;BME280;64513;56.258;43.980;2022-12-29T04:02:57;99375.83;;;3.84;57.94
75867;BME280;64513;56.258;43.980;2022-12-29T04:05:21;99381.61;;;3.86;57.93
75867;BME280;64513;56.258;43.980;2022-12-29T04:07:45;99380.03;;;3.85;57.88
75867;BME280;64513;56.258;43.980;2022-12-29T04:10:09;99380.58;;;3.87;57.92
75867;BME280;64513;56.258;43.980;2022-12-29T04:12:33;99384.78;;;3.88;57.85
75867;BME280;64513;56.258;43.980;2022-12-29T04:14:58;99386.37;;;3.90;57.88
75867;BME280;64513;56.258;43.980;2022-12-29T04:17:22;99387.95;;;3.91;57.89
75867;BME280;64513;56.258;43.980;2022-12-29T04:19:46;99384.31;;;3.92;57.87
75867;BME280;64513;56.258;43.980;2022-12-29T04:22:10;99384.83;;;3.94;57.87
75867;BME280;64513;56.258;43.980;2022-12-29T04:24:34;99387.45;;;3.94;57.85
75867;BME280;64513;56.258;43.980;2022-12-29T04:26:58;99389.03;;;3.95;57.84
75867;BME280;64513;56.258;43.980;2022-12-29T04:29:23;99395.84;;;3.96;57.85
75867;BME280;64513;56.258;43.980;2022-12-29T04:31:47;99395.84;;;3.96;57.84
75867;BME280;64513;56.258;43.980;2022-12-29T04:34:11;99402.66;;;3.97;57.83
75867;BME280;64513;56.258;43.980;2022-12-29T04:36:35;99403.45;;;3.97;57.82
75867;BME280;64513;56.258;43.980;2022-12-29T04:39:01;99409.48;;;3.98;57.83
75867;BME280;64513;56.258;43.980;2022-12-29T04:41:26;99416.30;;;3.99;57.84
75867;BME280;64513;56.258;43.980;2022-12-29T04:43:51;99412.09;;;3.98;57.82
75867;BME280;64513;56.258;43.980;2022-12-29T04:46:15;99407.42;;;4.00;57.85
75867;BME280;64513;56.258;43.980;2022-12-29T04:48:39;99414.23;;;4.01;57.79
75867;BME280;64513;56.258;43.980;2022-12-29T04:51:04;99407.42;;;4.00;57.79
75867;BME280;64513;56.258;43.980;2022-12-29T04:53:28;99411.38;;;4.02;57.86
75867;BME280;64513;56.258;43.980;2022-12-29T04:55:53;99412.17;;;4.03;57.85
75867;BME280;64513;56.258;43.980;2022-12-29T04:58:18;99416.38;;;4.04;57.81
75867;BME280;64513;56.258;43.980;2022-12-29T05:00:42;99419.00;;;4.04;57.85
75867;BME280;64513;56.258;43.980;2022-12-29T05:03:06;99414.31;;;4.06;57.82
75867;BME280;64513;56.258;43.980;2022-12-29T05:05:30;99415.11;;;4.06;57.86
75867;BME280;64513;56.258;43.980;2022-12-29T05:07:54;99419.07;;;4.09;57.82
75867;BME280;64513;56.258;43.980;2022-12-29T05:10:18;99426.12;;;4.08;57.85
75867;BME280;64513;56.258;43.980;2022-12-29T05:12:43;99427.69;;;4.09;57.86
75867;BME280;64513;56.258;43.980;2022-12-29T05:15:08;99425.62;;;4.11;57.86
75867;BME280;64513;56.258;43.980;2022-12-29T05:17:32;99421.18;;;4.12;57.84
75867;BME280;64513;56.258;43.980;2022-12-29T05:19:57;99427.76;;;4.14;57.86
75867;BME280;64513;56.258;43.980;2022-12-29T05:22:22;99431.16;;;4.15;57.80
75867;BME280;64513;56.258;43.980;2022-12-29T05:24:46;99432.75;;;4.16;57.82
75867;BME280;64513;56.258;43.980;2022-12-29T05:27:10;99433.55;;;4.16;57.85
75867;BME280;64513;56.258;43.980;2022-12-29T05:29:34;99435.13;;;4.17;57.81
75867;BME280;64513;56.258;43.980;2022-12-29T05:31:58;99435.92;;;4.18;57.86
75867;BME280;64513;56.258;43.980;2022-12-29T05:34:22;99442.74;;;4.19;57.83
75867;BME280;64513;56.258;43.980;2022-12-29T05:36:46;99440.12;;;4.19;57.81
75867;BME280;64513;56.258;43.980;2022-12-29T05:39:11;99444.33;;;4.20;57.81
75867;BME280;64513;56.258;43.980;2022-12-29T05:41:35;99444.88;;;4.22;57.78
75867;BME280;64513;56.258;43.980;2022-12-29T05:43:59;99443.84;;;4.23;57.80
75867;BME280;64513;56.258;43.980;2022-12-29T05:46:23;99450.67;;;4.24;57.78
75867;BME280;64513;56.258;43.980;2022-12-29T05:48:48;99449.61;;;4.25;57.79
75867;BME280;64513;56.258;43.980;2022-12-29T05:51:12;99459.05;;;4.26;57.76
75867;BME280;64513;56.258;43.980;2022-12-29T05:53:36;99455.39;;;4.27;57.76
75867;BME280;64513;56.258;43.980;2022-12-29T05:56:00;99462.22;;;4.28;57.78
75867;BME280;64513;56.258;43.980;2022-12-29T05:58:24;99469.03;;;4.29;57.74
75867;BME280;64513;56.258;43.980;2022-12-29T06:00:48;99470.62;;;4.30;57.76
75867;BME280;64513;56.258;43.980;2022-12-29T06:03:13;99470.62;;;4.30;57.76
75867;BME280;64513;56.258;43.980;2022-12-29T06:05:37;99474.83;;;4.31;57.75
75867;BME280;64513;56.258;43.980;2022-12-29T06:08:01;99474.83;;;4.31;57.76
75867;BME280;64513;56.258;43.980;2022-12-29T06:10:25;99476.41;;;4.32;57.75
75867;BME280;64513;56.258;43.980;2022-12-29T06:12:49;99474.59;;;4.33;57.71
75867;BME280;64513;56.258;43.980;2022-12-29T06:15:14;99476.97;;;4.34;57.75
75867;BME280;64513;56.258;43.980;2022-12-29T06:17:39;99476.17;;;4.34;57.75
75867;BME280;64513;56.258;43.980;2022-12-29T06:20:04;99481.17;;;4.35;57.77
75867;BME280;64513;56.258;43.980;2022-12-29T06:22:28;99483.31;;;4.38;57.72
75867;BME280;64513;56.258;43.980;2022-12-29T06:24:52;99484.89;;;4.39;57.71
75867;BME280;64513;56.258;43.980;2022-12-29T06:27:16;99479.66;;;4.39;57.70
75867;BME280;64513;56.258;43.980;2022-12-29T06:29:41;99478.62;;;4.40;57.71
75867;BME280;64513;56.258;43.980;2022-12-29T06:32:05;99477.56;;;4.41;57.70
75867;BME280;64513;56.258;43.980;2022-12-29T06:34:29;99480.73;;;4.43;57.68
75867;BME280;64513;56.258;43.980;2022-12-29T06:36:55;99483.91;;;4.45;57.66
75867;BME280;64513;56.258;43.980;2022-12-29T06:39:19;99480.25;;;4.46;57.68
75867;BME280;64513;56.258;43.980;2022-12-29T06:41:43;99481.60;;;4.49;57.62
75867;BME280;64513;56.258;43.980;2022-12-29T06:44:09;99485.02;;;4.49;57.64
75867;BME280;64513;56.258;43.980;2022-12-29T06:46:33;99486.59;;;4.50;57.64
75867;BME280;64513;56.258;43.980;2022-12-29T06:48:57;99488.19;;;4.51;57.59
75867;BME280;64513;56.258;43.980;2022-12-29T06:51:21;99490.80;;;4.51;57.54
75867;BME280;64513;56.258;43.980;2022-12-29T06:53:45;99490.56;;;4.53;57.56
75867;BME280;64513;56.258;43.980;2022-12-29T06:56:10;99489.29;;;4.55;57.58
75867;BME280;64513;56.258;43.980;2022-12-29T06:58:34;99490.84;;;4.56;57.60
75867;BME280;64513;56.258;43.980;2022-12-29T07:00:58;99492.43;;;4.57;57.59
75867;BME280;64513;56.258;43.980;2022-12-29T07:03:22;99494.02;;;4.58;57.58
75867;BME280;64513;56.258;43.980;2022-12-29T07:05:47;99491.16;;;4.60;57.53
75867;BME280;64513;56.258;43.980;2022-12-29T07:08:11;99494.57;;;4.61;57.53
75867;BME280;64513;56.258;43.980;2022-12-29T07:10:35;99489.88;;;4.63;57.52
75867;BME280;64513;56.258;43.980;2022-12-29T07:12:59;99488.84;;;4.64;57.49
75867;BME280;64513;56.258;43.980;2022-12-29T07:15:23;99495.67;;;4.65;57.48
75867;BME280;64513;56.258;43.980;2022-12-29T07:17:47;99490.20;;;4.66;57.49
75867;BME280;64513;56.258;43.980;2022-12-29T07:20:12;99492.58;;;4.68;57.48
75867;BME280;64513;56.258;43.980;2022-12-29T07:22:36;99497.33;;;4.71;57.46
75867;BME280;64513;56.258;43.980;2022-12-29T07:25:01;99488.44;;;4.72;57.44
75867;BME280;64513;56.258;43.980;2022-12-29T07:27:26;99497.37;;;4.76;57.44
75867;BME280;64513;56.258;43.980;2022-12-29T07:29:50;99493.72;;;4.77;57.37
75867;BME280;64513;56.258;43.980;2022-12-29T07:32:14;99487.44;;;4.78;57.39
75867;BME280;64513;56.258;43.980;2022-12-29T07:34:38;99497.44;;;4.81;57.36
75867;BME280;64513;56.258;43.980;2022-12-29T07:37:03;99492.75;;;4.83;57.40
75867;BME280;64513;56.258;43.980;2022-12-29T07:39:27;99488.06;;;4.85;57.35
75867;BME280;64513;56.258;43.980;2022-12-29T07:41:51;99487.55;;;4.88;57.33
75867;BME280;64513;56.258;43.980;2022-12-29T07:44:15;99487.06;;;4.91;57.25
75867;BME280;64513;56.258;43.980;2022-12-29T07:46:39;99489.44;;;4.92;57.27
75867;BME280;64513;56.258;43.980;2022-12-29T07:49:04;99491.81;;;4.94;57.25
75867;BME280;64513;56.258;43.980;2022-12-29T07:51:28;99485.05;;;4.98;57.24
75867;BME280;64513;56.258;43.980;2022-12-29T07:53:53;99498.70;;;5.00;57.22
75867;BME280;64513;56.258;43.980;2022-12-29T07:56:17;99490.84;;;5.00;57.25
75867;BME280;64513;56.258;43.980;2022-12-29T07:58:42;99491.13;;;5.04;57.22
75867;BME280;64513;56.258;43.980;2022-12-29T08:01:06;99486.67;;;5.04;57.20
75867;BME280;64513;56.258;43.980;2022-12-29T08:03:30;99499.30;;;5.07;57.16
75867;BME280;64513;56.258;43.980;2022-12-29T08:05:56;99494.59;;;5.09;57.13
75867;BME280;64513;56.258;43.980;2022-12-29T08:08:20;99491.49;;;5.12;57.13
75867;BME280;64513;56.258;43.980;2022-12-29T08:10:44;99492.04;;;5.14;57.10
75867;BME280;64513;56.258;43.980;2022-12-29T08:13:09;99495.20;;;5.16;57.09
75867;BME280;64513;56.258;43.980;2022-12-29T08:15:33;99503.63;;;5.18;57.07
75867;BME280;64513;56.258;43.980;2022-12-29T08:17:58;99497.34;;;5.19;57.05
75867;BME280;64513;56.258;43.980;2022-12-29T08:20:22;99495.23;;;5.21;57.06
75867;BME280;64513;56.258;43.980;2022-12-29T08:22:47;99505.48;;;5.23;57.05
75867;BME280;64513;56.258;43.980;2022-12-29T08:25:11;99502.61;;;5.24;57.04
75867;BME280;64513;56.258;43.980;2022-12-29T08:27:35;99508.41;;;5.26;57.00
75867;BME280;64513;56.258;43.980;2022-12-29T08:29:59;99512.61;;;5.27;56.97
75867;BME280;64513;56.258;43.980;2022-12-29T08:32:26;99506.88;;;5.31;56.97
75867;BME280;64513;56.258;43.980;2022-12-29T08:34:50;99500.59;;;5.32;56.96
75867;BME280;64513;56.258;43.980;2022-12-29T08:37:14;99512.42;;;5.34;56.93
75867;BME280;64513;56.258;43.980;2022-12-29T08:39:39;99500.63;;;5.37;56.90
75867;BME280;64513;56.258;43.980;2022-12-29T08:42:03;99503.80;;;5.39;56.88
75867;BME280;64513;56.258;43.980;2022-12-29T08:44:27;99513.80;;;5.42;56.83
75867;BME280;64513;56.258;43.980;2022-12-29T08:46:52;99508.30;;;5.43;56.82
75867;BME280;64513;56.258;43.980;2022-12-29T08:49:16;99509.89;;;5.44;56.83
75867;BME280;64513;56.258;43.980;2022-12-29T08:51:40;99514.09;;;5.45;56.82
75867;BME280;64513;56.258;43.980;2022-12-29T08:54:04;99512.81;;;5.48;56.79
75867;BME280;64513;56.258;43.980;2022-12-29T08:56:28;99514.40;;;5.49;56.79
75867;BME280;64513;56.258;43.980;2022-12-29T08:58:53;99512.81;;;5.48;56.79
75867;BME280;64513;56.258;43.980;2022-12-29T09:01:17;99519.64;;;5.49;56.77
75867;BME280;64513;56.258;43.980;2022-12-29T09:03:41;99511.53;;;5.50;56.75
75867;BME280;64513;56.258;43.980;2022-12-29T09:06:06;99516.50;;;5.52;56.73
75867;BME280;64513;56.258;43.980;2022-12-29T09:08:30;99518.08;;;5.53;56.74
75867;BME280;64513;56.258;43.980;2022-12-29T09:10:54;99522.30;;;5.54;56.72
75867;BME280;64513;56.258;43.980;2022-12-29T09:13:19;99517.84;;;5.54;56.71
75867;BME280;64513;56.258;43.980;2022-12-29T09:15:43;99521.00;;;5.56;56.73
75867;BME280;64513;56.258;43.980;2022-12-29T09:18:09;99523.38;;;5.58;56.69
75867;BME280;64513;56.258;43.980;2022-12-29T09:20:33;99522.34;;;5.59;56.63
75867;BME280;64513;56.258;43.980;2022-12-29T09:22:58;99517.65;;;5.61;56.60
75867;BME280;64513;56.258;43.980;2022-12-29T09:25:23;99514.23;;;5.60;56.64
75867;BME280;64513;56.258;43.980;2022-12-29T09:27:47;99516.61;;;5.62;56.64
75867;BME280;64513;56.258;43.980;2022-12-29T09:30:12;99515.57;;;5.63;56.63
75867;BME280;64513;56.258;43.980;2022-12-29T09:32:37;99516.36;;;5.63;56.60
75867;BME280;64513;56.258;43.980;2022-12-29T09:35:02;99522.40;;;5.64;56.60
75867;BME280;64513;56.258;43.980;2022-12-29T09:37:27;99517.70;;;5.66;56.58
75867;BME280;64513;56.258;43.980;2022-12-29T09:39:51;99515.08;;;5.66;56.59
75867;BME280;64513;56.258;43.980;2022-12-29T09:48:47;99519.00;;;5.69;56.51
75867;BME280;64513;56.258;43.980;2022-12-29T09:51:15;99520.33;;;5.66;56.54
75867;BME280;64513;56.258;43.980;2022-12-29T09:53:58;99523.98;;;5.65;56.58
75867;BME280;64513;56.258;43.980;2022-12-29T09:56:25;99522.95;;;5.66;56.62
75867;BME280;64513;56.258;43.980;2022-12-29T09:58:54;99525.57;;;5.66;56.61
75867;BME280;64513;56.258;43.980;2022-12-29T10:04:21;99532.38;;;5.67;56.65
75867;BME280;64513;56.258;43.980;2022-12-29T10:09:34;99530.30;;;5.69;56.63
75867;BME280;64513;56.258;43.980;2022-12-29T10:23:58;99537.17;;;5.75;56.57
75867;BME280;64513;56.258;43.980;2022-12-29T10:30:01;99537.67;;;5.72;56.62
75867;BME280;64513;56.258;43.980;2022-12-29T10:35:03;99539.50;;;5.72;56.68
75867;BME280;64513;56.258;43.980;2022-12-29T10:44:08;99543.16;;;5.71;56.74
75867;BME280;64513;56.258;43.980;2022-12-29T10:48:48;99544.99;;;5.70;56.73
75867;BME280;64513;56.258;43.980;2022-12-29T10:51:18;99553.66;;;5.71;56.75
75867;BME280;64513;56.258;43.980;2022-12-29T10:59:31;99555.00;;;5.73;56.75
75867;BME280;64513;56.258;43.980;2022-12-29T11:07:10;99557.38;;;5.75;56.75
75867;BME280;64513;56.258;43.980;2022-12-29T11:09:37;99553.95;;;5.74;56.77
75867;BME280;64513;56.258;43.980;2022-12-29T11:14:52;99557.63;;;5.73;56.80
75867;BME280;64513;56.258;43.980;2022-12-29T11:20:38;99559.20;;;5.74;56.78
75867;BME280;64513;56.258;43.980;2022-12-29T11:23:19;99560.24;;;5.73;56.75
75867;BME280;64513;56.258;43.980;2022-12-29T11:25:30;99567.32;;;5.73;56.78
75867;BME280;64513;56.258;43.980;2022-12-29T11:28:15;99562.32;;;5.71;56.82
75867;BME280;64513;56.258;43.980;2022-12-29T11:30:40;99564.16;;;5.71;56.84
75867;BME280;64513;56.258;43.980;2022-12-29T11:33:04;99562.56;;;5.70;56.84
75867;BME280;64513;56.258;43.980;2022-12-29T11:35:48;99559.94;;;5.70;56.83
75867;BME280;64513;56.258;43.980;2022-12-29T11:41:36;99561.77;;;5.69;56.81
75867;BME280;64513;56.258;43.980;2022-12-29T11:44:02;99565.44;;;5.68;56.80
75867;BME280;64513;56.258;43.980;2022-12-29T11:46:48;99571.99;;;5.66;56.84
75867;BME280;64513;56.258;43.980;2022-12-29T11:49:19;99565.95;;;5.65;56.89
75867;BME280;64513;56.258;43.980;2022-12-29T11:54:29;99569.62;;;5.64;56.90
75867;BME280;64513;56.258;43.980;2022-12-29T11:56:54;99574.86;;;5.64;56.90
75867;BME280;64513;56.258;43.980;2022-12-29T12:08:17;99578.52;;;5.63;56.87
75867;BME280;64513;56.258;43.980;2022-12-29T12:16:33;99584.50;;;5.58;56.96
75867;BME280;64513;56.258;43.980;2022-12-29T12:21:45;99588.90;;;5.53;56.95
75867;BME280;64513;56.258;43.980;2022-12-29T13:00:24;99626.69;;;5.30;57.23
75867;BME280;64513;56.258;43.980;2022-12-29T13:09:01;99641.63;;;5.29;57.26
75867;BME280;64513;56.258;43.980;2022-12-29T13:17:02;99640.04;;;5.28;57.28
75867;BME280;64513;56.258;43.980;2022-12-29T13:23:04;99643.45;;;5.29;57.27
75867;BME280;64513;56.258;43.980;2022-12-29T13:28:20;99637.17;;;5.30;57.23
75867;BME280;64513;56.258;43.980;2022-12-29T13:41:53;99659.42;;;5.27;57.24
75867;BME280;64513;56.258;43.980;2022-12-29T13:46:46;99669.36;;;5.25;57.29
75867;BME280;64513;56.258;43.980;2022-12-29T13:54:45;99664.67;;;5.27;57.25
75867;BME280;64513;56.258;43.980;2022-12-29T14:00:16;99667.28;;;5.27;57.26
75867;BME280;64513;56.258;43.980;2022-12-29T14:06:02;99660.45;;;5.26;57.28
75867;BME280;64513;56.258;43.980;2022-12-29T14:08:33;99663.08;;;5.26;57.25
75867;BME280;64513;56.258;43.980;2022-12-29T14:11:00;99664.91;;;5.26;57.28
75867;BME280;64513;56.258;43.980;2022-12-29T14:13:26;99661.48;;;5.25;57.31
75867;BME280;64513;56.258;43.980;2022-12-29T14:21:23;99660.45;;;5.26;57.30
75867;BME280;64513;56.258;43.980;2022-12-29T14:29:44;99684.05;;;5.26;57.28
75867;BME280;64513;56.258;43.980;2022-12-29T14:34:56;99685.64;;;5.27;57.33
75867;BME280;64513;56.258;43.980;2022-12-29T14:42:54;99683.02;;;5.27;57.31
75867;BME280;64513;56.258;43.980;2022-12-29T14:45:26;99684.84;;;5.27;57.27
75867;BME280;64513;56.258;43.980;2022-12-29T14:50:50;99681.98;;;5.28;57.36
75867;BME280;64513;56.258;43.980;2022-12-29T14:56:24;99683.02;;;5.27;57.34
75867;BME280;64513;56.258;43.980;2022-12-29T14:59:08;99689.30;;;5.26;57.31
75867;BME280;64513;56.258;43.980;2022-12-29T15:01:52;99690.09;;;5.27;57.38
75867;BME280;64513;56.258;43.980;2022-12-29T15:04:37;99695.33;;;5.27;57.36
75867;BME280;64513;56.258;43.980;2022-12-29T15:07:04;99698.19;;;5.25;57.36
75867;BME280;64513;56.258;43.980;2022-12-29T15:12:54;99697.16;;;5.26;57.42
75867;BME280;64513;56.258;43.980;2022-12-29T15:21:11;99685.88;;;5.26;57.39
75867;BME280;64513;56.258;43.980;2022-12-29T15:23:36;99695.57;;;5.25;57.40
75867;BME280;64513;56.258;43.980;2022-12-29T15:26:03;99691.36;;;5.24;57.44
75867;BME280;64513;56.258;43.980;2022-12-29T15:34:20;99690.09;;;5.27;57.41
75867;BME280;64513;56.258;43.980;2022-12-29T15:36:44;99694.54;;;5.26;57.37
75867;BME280;64513;56.258;43.980;2022-12-29T15:39:30;99695.33;;;5.27;57.41
75867;BME280;64513;56.258;43.980;2022-12-29T15:41:56;99701.38;;;5.27;57.42
75867;BME280;64513;56.258;43.980;2022-12-29T15:47:28;99696.92;;;5.28;57.39
75867;BME280;64513;56.258;43.980;2022-12-29T15:52:57;99698.75;;;5.27;57.36
75867;BME280;64513;56.258;43.980;2022-12-29T15:58:29;99705.03;;;5.26;57.40
75867;BME280;64513;56.258;43.980;2022-12-29T16:00:56;99709.23;;;5.27;57.40
75867;BME280;64513;56.258;43.980;2022-12-29T16:03:22;99709.47;;;5.26;57.41
75867;BME280;64513;56.258;43.980;2022-12-29T16:06:39;99709.47;;;5.26;57.39
75867;BME280;64513;56.258;43.980;2022-12-29T16:08:35;99705.82;;;5.27;57.39
75867;BME280;64513;56.258;43.980;2022-12-29T16:11:35;99703.20;;;5.27;57.36
75867;BME280;64513;56.258;43.980;2022-12-29T16:13:47;99703.20;;;5.27;57.39
75867;BME280;64513;56.258;43.980;2022-12-29T16:16:32;99705.58;;;5.28;57.38
75867;BME280;64513;56.258;43.980;2022-12-29T16:18:57;99707.17;;;5.29;57.32
75867;BME280;64513;56.258;43.980;2022-12-29T16:24:12;99708.20;;;5.28;57.35
75867;BME280;64513;56.258;43.980;2022-12-29T16:26:35;99703.98;;;5.27;57.29
75867;BME280;64513;56.258;43.980;2022-12-29T16:29:01;99701.38;;;5.27;57.35
75867;BME280;64513;56.258;43.980;2022-12-29T16:34:51;99708.20;;;5.28;57.37
75867;BME280;64513;56.258;43.980;2022-12-29T16:37:36;99701.38;;;5.27;57.27
75867;BME280;64513;56.258;43.980;2022-12-29T16:40:23;99698.98;;;5.26;57.29
75867;BME280;64513;56.258;43.980;2022-12-29T16:42:49;99694.78;;;5.25;57.37
75867;BME280;64513;56.258;43.980;2022-12-29T16:51:41;99700.27;;;5.23;57.30
75867;BME280;64513;56.258;43.980;2022-12-29T16:54:05;99696.05;;;5.22;57.34
75867;BME280;64513;56.258;43.980;2022-12-29T16:59:21;99693.67;;;5.21;57.43
75867;BME280;64513;56.258;43.980;2022-12-29T17:01:43;99687.63;;;5.20;57.43
75867;BME280;64513;56.258;43.980;2022-12-29T17:04:10;99686.59;;;5.21;57.45
75867;BME280;64513;56.258;43.980;2022-12-29T17:06:35;99681.36;;;5.21;57.43
75867;BME280;64513;56.258;43.980;2022-12-29T17:09:01;99681.91;;;5.23;57.43
75867;BME280;64513;56.258;43.980;2022-12-29T17:11:47;99689.77;;;5.23;57.41
75867;BME280;64513;56.258;43.980;2022-12-29T17:14:52;99686.12;;;5.24;57.37
75867;BME280;64513;56.258;43.980;2022-12-29T17:20:42;99692.39;;;5.23;57.34
75867;BME280;64513;56.258;43.980;2022-12-29T17:25:51;99695.26;;;5.22;57.33
75867;BME280;64513;56.258;43.980;2022-12-29T17:31:03;99684.77;;;5.22;57.41
75867;BME280;64513;56.258;43.980;2022-12-29T17:33:33;99682.94;;;5.22;57.41
75867;BME280;64513;56.258;43.980;2022-12-29T17:35:57;99696.05;;;5.22;57.36
75867;BME280;64513;56.258;43.980;2022-12-29T17:38:42;99685.33;;;5.24;57.42
75867;BME280;64513;56.258;43.980;2022-12-29T17:41:26;99688.73;;;5.24;57.33
75867;BME280;64513;56.258;43.980;2022-12-29T17:43:50;99690.57;;;5.24;57.34
75867;BME280;64513;56.258;43.980;2022-12-29T17:46:15;99686.12;;;5.24;57.39
75867;BME280;64513;56.258;43.980;2022-12-29T17:48:39;99690.33;;;5.25;57.39
75867;BME280;64513;56.258;43.980;2022-12-29T17:51:04;99695.57;;;5.25;57.38
75867;BME280;64513;56.258;43.980;2022-12-29T17:53:30;99695.57;;;5.25;57.38
75867;BME280;64513;56.258;43.980;2022-12-29T17:55:55;99698.19;;;5.25;57.39
75867;BME280;64513;56.258;43.980;2022-12-29T17:58:39;99694.54;;;5.26;57.38
75867;BME280;64513;56.258;43.980;2022-12-29T18:01:04;99699.78;;;5.26;57.36
75867;BME280;64513;56.258;43.980;2022-12-29T18:03:30;99703.20;;;5.27;57.33
75867;BME280;64513;56.258;43.980;2022-12-29T18:05:55;99697.95;;;5.27;57.37